createdAt,value
2023-01-11T00:02:34.626Z,98331.66
2023-01-11T00:05:42.294Z,98324.16
2023-01-11T00:08:48.278Z,98335.13
2023-01-11T00:11:58.208Z,98340.22
2023-01-11T00:15:14.383Z,98314.72
2023-01-11T00:18:31.013Z,98335.91
2023-01-11T00:21:37.490Z,98336.75
2023-01-11T00:25:09.351Z,98328.25
2023-01-11T00:28:19.119Z,98329.91
2023-01-11T00:31:39.852Z,98315.41
2023-01-11T00:35:13.461Z,98316.28
2023-01-11T00:38:53.882Z,98303.53
2023-01-11T00:46:45.684Z,98297.50
2023-01-11T00:49:53.945Z,98290.72
2023-01-11T00:53:09.614Z,98261.94
2023-01-11T00:56:22.741Z,98295.91
2023-01-11T00:59:39.555Z,98295.91
2023-01-11T01:02:55.951Z,98301.84
2023-01-11T01:06:15.969Z,98267.97
2023-01-11T01:09:24.389Z,98290.88
2023-01-11T01:13:06.873Z,98293.22
2023-01-11T01:19:41.166Z,98283.13
2023-01-11T01:22:50.774Z,98291.66
2023-01-11T01:26:05.160Z,98270.47
2023-01-11T01:29:15.957Z,98284.84
2023-01-11T01:32:27.471Z,98283.94
2023-01-11T01:35:47.180Z,98277.94
2023-01-11T01:38:57.632Z,98273.63
2023-01-11T01:42:09.885Z,98281.31
2023-01-11T01:45:26.693Z,98268.53
2023-01-11T01:48:35.277Z,98266.78
2023-01-11T01:51:51.760Z,98264.09
2023-01-11T01:55:06.685Z,98265.00
2023-01-11T01:58:24.940Z,98247.00
2023-01-11T02:01:54.469Z,98227.53
2023-01-11T02:05:05.857Z,98241.97
2023-01-11T02:08:37.649Z,98249.63
2023-01-11T02:11:48.234Z,98240.22
2023-01-11T02:15:24.218Z,98194.47
2023-01-11T02:19:02.480Z,98176.72
2023-01-11T02:23:03.999Z,98232.44
2023-01-11T02:26:47.465Z,98232.44
2023-01-11T02:30:22.250Z,98220.47
2023-01-11T02:33:56.269Z,98221.31
2023-01-11T02:37:11.070Z,98215.25
2023-01-11T02:40:33.075Z,98204.19
2023-01-11T02:44:08.267Z,98203.13
2023-01-11T02:47:51.255Z,98149.84
2023-01-11T02:51:25.689Z,98206.69
2023-01-11T02:55:04.153Z,98213.53
2023-01-11T02:58:54.480Z,98207.53
2023-01-11T03:02:02.857Z,98174.25
2023-01-11T03:05:30.020Z,98190.91
2023-01-11T03:08:55.469Z,98179.31
2023-01-11T03:12:36.210Z,98184.03
2023-01-11T03:16:16.442Z,98178.25
2023-01-11T03:19:32.175Z,98171.34
2023-01-11T03:23:07.181Z,98175.50
2023-01-11T03:26:33.125Z,98184.03
2023-01-11T03:30:04.060Z,98172.25
2023-01-11T03:33:18.360Z,98161.88
2023-01-11T03:36:39.567Z,98156.84
2023-01-11T03:40:04.293Z,98151.22
2023-01-11T03:43:15.854Z,98138.81
2023-01-11T03:46:34.524Z,98130.06
2023-01-11T03:49:59.172Z,98136.06
2023-01-11T03:53:13.320Z,98109.75
2023-01-11T03:56:27.075Z,98130.81
2023-01-11T03:59:51.739Z,97988.78
2023-01-11T04:03:10.499Z,98120.50
2023-01-11T04:06:25.588Z,98112.81
2023-01-11T04:09:35.198Z,98120.97
2023-01-11T04:12:58.985Z,98114.94
2023-01-11T04:16:12.446Z,98108.13
2023-01-11T04:19:38.371Z,98116.13
2023-01-11T04:22:57.891Z,98121.34
2023-01-11T04:26:05.316Z,98110.19
2023-01-11T04:29:18.407Z,98110.16
2023-01-11T04:34:28.492Z,98101.31
2023-01-11T04:38:05.523Z,98110.22
2023-01-11T04:45:38.189Z,98121.44
2023-01-11T04:48:49.091Z,98111.25
2023-01-11T04:52:03.375Z,98114.44
2023-01-11T04:55:16.289Z,98122.22
2023-01-11T04:58:31.545Z,98105.97
2023-01-11T05:01:35.257Z,98101.97
2023-01-11T05:04:45.970Z,98110.34
2023-01-11T05:08:00.948Z,98108.56
2023-01-11T05:11:07.295Z,98112.00
2023-01-11T05:14:23.920Z,98103.41
2023-01-11T05:17:28.257Z,98105.09
2023-01-11T05:20:40.885Z,98101.47
2023-01-11T05:23:47.974Z,98060.94
2023-01-11T05:26:55.409Z,98087.91
2023-01-11T05:30:13.944Z,98090.31
2023-01-11T05:33:40.663Z,98080.50
2023-01-11T05:37:12.544Z,98074.03
2023-01-11T05:40:40.997Z,98028.16
2023-01-11T05:44:25.244Z,98061.13
2023-01-11T05:47:40.055Z,98065.25
2023-01-11T05:50:58.501Z,98056.69
2023-01-11T05:54:20.965Z,98053.19
2023-01-11T05:57:36.978Z,98040.31
2023-01-11T06:00:41.275Z,98041.97
2023-01-11T06:03:45.386Z,98032.56
2023-01-11T06:07:16.411Z,98034.06
2023-01-11T06:10:36.009Z,98032.22
2023-01-11T06:13:54.664Z,98041.44
2023-01-11T06:17:14.606Z,98043.19
2023-01-11T06:20:29.953Z,98041.41
2023-01-11T06:23:38.126Z,97996.66
2023-01-11T06:27:05.706Z,98031.09
2023-01-11T06:30:38.536Z,98038.00
2023-01-11T06:34:04.737Z,98042.16
2023-01-11T06:37:28.204Z,98048.00
2023-01-11T06:40:43.261Z,98044.50
2023-01-11T06:43:52.800Z,98045.38
2023-01-11T06:47:00.847Z,98050.38
2023-01-11T06:50:21.227Z,98051.97
2023-01-11T06:53:31.702Z,98043.91
2023-01-11T06:56:40.965Z,98044.16
2023-01-11T06:59:55.877Z,98031.03
2023-01-11T07:03:20.563Z,98026.72
2023-01-11T07:06:34.343Z,98037.66
2023-01-11T07:09:51.551Z,98027.06
2023-01-11T07:12:54.907Z,98014.34
2023-01-11T07:16:01.245Z,98032.06
2023-01-11T07:19:22.798Z,98030.28
2023-01-11T07:22:47.999Z,98025.88
2023-01-11T07:26:05.775Z,98023.88
2023-01-11T07:29:14.047Z,98019.81
2023-01-11T07:32:33.726Z,98015.34
2023-01-11T07:36:16.977Z,98019.50
2023-01-11T07:39:56.861Z,98008.22
2023-01-11T07:43:35.750Z,98000.94
2023-01-11T07:47:04.587Z,98002.25
2023-01-11T07:50:37.223Z,97978.69
2023-01-11T07:53:43.048Z,98009.44
2023-01-11T07:57:15.319Z,98010.38
2023-01-11T08:00:40.596Z,98022.06
2023-01-11T08:04:04.585Z,98004.88
2023-01-11T08:07:35.238Z,97998.56
2023-01-11T08:11:30.011Z,97997.94
2023-01-11T08:14:43.325Z,97982.25
2023-01-11T08:17:55.609Z,97978.78
2023-01-11T08:21:32.468Z,97992.56
2023-01-11T08:24:36.089Z,97986.97
2023-01-11T08:27:41.338Z,97982.91
2023-01-11T08:30:45.778Z,97978.88
2023-01-11T08:33:51.520Z,97977.31
2023-01-11T08:36:57.584Z,97970.19
2023-01-11T08:40:01.146Z,97972.66
2023-01-11T08:43:09.102Z,97980.34
2023-01-11T08:46:14.953Z,97986.63
2023-01-11T08:49:27.533Z,97988.56
2023-01-11T08:52:36.083Z,97983.41
2023-01-11T08:55:44.695Z,97985.78
2023-01-11T08:58:50.195Z,97976.22
2023-01-11T09:01:58.967Z,97975.28
2023-01-11T09:05:06.805Z,97974.28
2023-01-11T09:08:24.613Z,97980.09
2023-01-11T09:15:25.562Z,97983.47
2023-01-11T09:18:38.184Z,97985.13
2023-01-11T09:21:46.514Z,97975.63
2023-01-11T09:25:03.790Z,97970.28
2023-01-11T09:28:12.641Z,97973.69
2023-01-11T09:31:32.401Z,97970.94
2023-01-11T09:35:12.923Z,97980.22
2023-01-11T09:38:38.144Z,97979.28
2023-01-11T09:42:27.054Z,97969.34
2023-01-11T09:45:57.243Z,97961.63
2023-01-11T09:49:16.373Z,97953.44
2023-01-11T09:52:32.931Z,97948.53
2023-01-11T09:55:46.569Z,97948.94
2023-01-11T09:59:10.965Z,97943.81
2023-01-11T10:02:34.691Z,97927.25
2023-01-11T10:06:09.112Z,97929.94
2023-01-11T10:18:30.855Z,97914.53
2023-01-11T10:20:56.622Z,97908.34
2023-01-11T10:28:07.480Z,97912.00
2023-01-11T10:34:51.832Z,97898.13
2023-01-11T10:42:03.242Z,97884.09
2023-01-11T10:45:37.453Z,97881.75
2023-01-11T10:49:35.810Z,97878.06
2023-01-11T10:53:08.058Z,97874.66
2023-01-11T10:57:05.149Z,97877.59
2023-01-11T11:00:32.918Z,97880.22
2023-01-11T11:04:03.813Z,97877.09
2023-01-11T11:07:42.254Z,97870.53
2023-01-11T11:11:24.968Z,97864.81
2023-01-11T11:14:42.773Z,97863.84
2023-01-11T11:17:54.031Z,97823.91
2023-01-11T11:21:13.668Z,97857.06
2023-01-11T11:24:45.169Z,97858.63
2023-01-11T11:28:01.300Z,97868.03
2023-01-11T11:31:16.373Z,97871.94
2023-01-11T11:34:27.310Z,97880.69
2023-01-11T11:37:41.542Z,97885.34
2023-01-11T11:41:04.831Z,97875.47
2023-01-11T11:44:16.315Z,97872.34
2023-01-11T11:47:19.858Z,97869.56
2023-01-11T11:50:43.591Z,97863.59
2023-01-11T11:54:07.782Z,97862.22
2023-01-11T11:57:39.744Z,97868.88
2023-01-11T12:01:08.131Z,97863.88
2023-01-11T12:04:16.290Z,97867.28
2023-01-11T12:07:21.907Z,97864.50
2023-01-11T12:10:27.572Z,97861.94
2023-01-11T12:14:01.162Z,97864.00
2023-01-11T12:17:24.127Z,97868.19
2023-01-11T12:20:33.723Z,97857.59
2023-01-11T12:23:40.670Z,97869.53
2023-01-11T12:27:03.712Z,97861.63
2023-01-11T12:30:25.235Z,97852.06
2023-01-11T12:33:44.361Z,97864.50
2023-01-11T12:36:57.056Z,97855.88
2023-01-11T12:40:12.091Z,97856.97
2023-01-11T12:43:35.320Z,97850.28
2023-01-11T12:46:52.725Z,97855.50
2023-01-11T12:50:03.380Z,97857.22
2023-01-11T12:53:43.569Z,97865.94
2023-01-11T12:57:15.040Z,97840.59
2023-01-11T13:01:15.670Z,97864.31
2023-01-11T13:05:06.531Z,97862.00
2023-01-11T13:08:22.020Z,97858.31
2023-01-11T13:11:42.229Z,97858.34
2023-01-11T13:15:00.946Z,97862.84
2023-01-11T13:18:18.611Z,97858.38
2023-01-11T13:21:58.786Z,97861.22
2023-01-11T13:25:29.361Z,97856.00
2023-01-11T13:29:07.084Z,97855.03
2023-01-11T13:32:38.947Z,97856.13
2023-01-11T13:35:54.046Z,97858.38
2023-01-11T13:39:06.739Z,97867.03
2023-01-11T13:42:16.827Z,97858.31
2023-01-11T13:45:25.920Z,97857.63
2023-01-11T13:48:43.510Z,97864.13
2023-01-11T13:51:55.108Z,97864.25
2023-01-11T13:55:11.208Z,97871.06
2023-01-11T13:58:23.479Z,97864.94
2023-01-11T14:01:53.709Z,97872.69
2023-01-11T14:05:21.456Z,97875.13
2023-01-11T14:09:16.082Z,97874.13
2023-01-11T14:12:55.895Z,97878.38
2023-01-11T14:16:07.298Z,97883.31
2023-01-11T14:19:21.721Z,97888.59
2023-01-11T14:22:35.786Z,97899.44
2023-01-11T14:25:51.140Z,97901.28
2023-01-11T14:29:06.885Z,97899.34
2023-01-11T14:32:25.631Z,97903.59
2023-01-11T14:36:00.275Z,97919.84
2023-01-11T14:39:57.596Z,97914.50
2023-01-11T14:43:21.676Z,97903.38
2023-01-11T14:46:51.992Z,97912.13
2023-01-11T14:50:11.724Z,97907.53
2023-01-11T14:53:20.758Z,97912.75
2023-01-11T14:56:36.969Z,97909.44
2023-01-11T14:59:41.335Z,97919.19
2023-01-11T15:02:46.662Z,97918.44
2023-01-11T15:05:55.556Z,97923.25
2023-01-11T15:09:02.677Z,97920.31
2023-01-11T15:12:13.405Z,97922.63
2023-01-11T15:15:21.170Z,97895.03
2023-01-11T15:18:26.610Z,97933.97
2023-01-11T15:21:29.988Z,97932.34
2023-01-11T15:24:36.528Z,97936.91
2023-01-11T15:27:40.094Z,97941.16
2023-01-11T15:30:52.731Z,97941.94
2023-01-11T15:34:02.691Z,97941.03
2023-01-11T15:37:33.467Z,97938.28
2023-01-11T15:40:41.069Z,97925.91
2023-01-11T15:44:29.450Z,97948.97
2023-01-11T15:48:19.793Z,97957.97
2023-01-11T15:52:23.226Z,97960.19
2023-01-11T15:55:58.923Z,97948.72
2023-01-11T15:59:44.394Z,97973.31
2023-01-11T16:03:34.803Z,97979.50
2023-01-11T16:06:44.683Z,97997.50
2023-01-11T16:10:07.401Z,97990.03
2023-01-11T16:13:30.965Z,97994.88
2023-01-11T16:16:44.018Z,98012.84
2023-01-11T16:19:47.276Z,98018.53
2023-01-11T16:22:54.557Z,97988.09
2023-01-11T16:26:01.915Z,98020.44
2023-01-11T16:29:14.702Z,98017.16
2023-01-11T16:34:42.560Z,98032.53
2023-01-11T16:37:51.388Z,98024.75
2023-01-11T16:40:56.495Z,98024.44
2023-01-11T16:44:03.843Z,98031.69
2023-01-11T16:47:23.713Z,98031.91
2023-01-11T16:50:28.624Z,98032.19
2023-01-11T16:53:33.983Z,98029.06
2023-01-11T16:56:37.367Z,98043.91
2023-01-11T17:00:28.983Z,98043.91
2023-01-11T17:03:34.228Z,98052.06
2023-01-11T17:06:38.857Z,98050.03
2023-01-11T17:09:43.897Z,98049.06
2023-01-11T17:13:08.773Z,98058.44
2023-01-11T17:16:15.607Z,98064.00
2023-01-11T17:19:21.062Z,98057.06
2023-01-11T17:22:29.088Z,98062.09
2023-01-11T17:25:44.387Z,98080.66
2023-01-11T17:32:58.996Z,98091.16
2023-01-11T17:36:04.444Z,98107.53
2023-01-11T17:39:12.204Z,98107.41
2023-01-11T17:42:35.098Z,98099.00
2023-01-11T17:45:39.235Z,98115.75
2023-01-11T17:49:02.363Z,98121.19
2023-01-11T17:52:27.820Z,98083.75
2023-01-11T17:55:34.622Z,98119.34
2023-01-11T17:58:38.727Z,98123.78
2023-01-11T18:01:48.105Z,98130.16
2023-01-11T18:04:59.489Z,98130.38
2023-01-11T18:08:09.587Z,98138.13
2023-01-11T18:11:24.308Z,98088.06
2023-01-11T18:14:40.044Z,98139.25
2023-01-11T18:17:45.647Z,98151.47
2023-01-11T18:20:49.576Z,98153.81
2023-01-11T18:24:32.274Z,98158.81
2023-01-11T18:27:38.149Z,98161.59
2023-01-11T18:30:43.239Z,98172.19
2023-01-11T18:33:46.764Z,98168.13
2023-01-11T18:36:50.083Z,98169.97
2023-01-11T18:39:56.110Z,98125.50
2023-01-11T18:43:02.825Z,98175.06
2023-01-11T18:46:06.530Z,98173.44
2023-01-11T18:49:09.974Z,98172.75
2023-01-11T18:52:13.978Z,98173.38
2023-01-11T18:55:17.834Z,98168.72
2023-01-11T18:58:22.946Z,98174.44
2023-01-11T19:01:27.614Z,98178.72
2023-01-11T19:04:31.312Z,98180.91
2023-01-11T19:07:52.528Z,98177.72
2023-01-11T19:10:56.408Z,98172.59
2023-01-11T19:14:17.507Z,98183.75
2023-01-11T19:17:23.578Z,98189.19
2023-01-11T19:20:26.875Z,98191.75
2023-01-11T19:23:31.577Z,98191.53
2023-01-11T19:26:41.110Z,98196.63
2023-01-11T19:29:49.251Z,98208.38
2023-01-11T19:33:02.707Z,98217.47
2023-01-11T19:36:29.129Z,98209.72
2023-01-11T19:39:32.788Z,98223.31
2023-01-11T19:42:36.801Z,98218.09
2023-01-11T19:45:41.984Z,98226.47
2023-01-11T19:48:45.499Z,98225.72
2023-01-11T19:51:49.070Z,98226.34
2023-01-11T19:54:55.622Z,98224.56
2023-01-11T19:57:59.185Z,98223.72
2023-01-11T20:01:09.809Z,98222.25
2023-01-11T20:04:16.365Z,98227.13
2023-01-11T20:07:20.434Z,98228.56
2023-01-11T20:14:08.897Z,98227.09
2023-01-11T20:17:21.176Z,98238.81
2023-01-11T20:20:24.428Z,98241.66
2023-01-11T20:23:27.732Z,98245.53
2023-01-11T20:26:33.873Z,98250.00
2023-01-11T20:29:37.196Z,98254.09
2023-01-11T20:32:42.604Z,98266.06
2023-01-11T20:35:45.947Z,98269.66
2023-01-11T20:38:49.450Z,98287.44
2023-01-11T20:41:57.695Z,98283.94
2023-01-11T20:45:05.336Z,98291.94
2023-01-11T20:48:12.019Z,98276.22
2023-01-11T20:51:17.753Z,98285.94
2023-01-11T20:54:25.256Z,98291.41
2023-01-11T20:57:29.657Z,98281.31
2023-01-11T21:00:34.588Z,98285.00
2023-01-11T21:03:39.586Z,98271.25
2023-01-11T21:06:45.998Z,98291.13
2023-01-11T21:09:49.918Z,98298.63
2023-01-11T21:16:07.455Z,98295.53
2023-01-11T21:19:15.344Z,98303.63
2023-01-11T21:22:38.429Z,98310.31
2023-01-11T21:25:41.722Z,98315.38
2023-01-11T21:28:45.739Z,98320.59
2023-01-11T21:31:49.411Z,98313.00
2023-01-11T21:34:55.444Z,98310.09
2023-01-11T21:37:59.005Z,98314.88
2023-01-11T21:41:07.395Z,98332.31
2023-01-11T21:44:27.318Z,98335.00
2023-01-11T21:47:30.700Z,98327.13
2023-01-11T21:50:35.672Z,98252.66
2023-01-11T21:53:59.093Z,98336.50
2023-01-11T21:57:02.817Z,98344.09
2023-01-11T22:00:07.008Z,98334.81
2023-01-11T22:03:15.570Z,98327.41
2023-01-11T22:06:20.406Z,98313.19
2023-01-11T22:09:24.746Z,98334.59
2023-01-11T22:12:28.228Z,98335.47
2023-01-11T22:15:31.513Z,98337.16
2023-01-11T22:18:41.025Z,98325.88
2023-01-11T22:21:45.803Z,98330.47
2023-01-11T22:24:49.453Z,98311.66
2023-01-11T22:27:58.049Z,98318.03
2023-01-11T22:34:25.483Z,98329.34
2023-01-11T22:37:28.747Z,98336.28
2023-01-11T22:40:32.023Z,98335.13
2023-01-11T22:43:35.527Z,98338.72
2023-01-11T22:46:39.411Z,98338.63
2023-01-11T22:49:44.163Z,98344.47
2023-01-11T22:52:47.531Z,98349.63
2023-01-11T22:55:53.682Z,98359.06
2023-01-11T22:59:16.719Z,98363.19
2023-01-11T23:02:27.236Z,98358.25
2023-01-11T23:05:33.648Z,98358.19
2023-01-11T23:08:40.740Z,98352.94
2023-01-11T23:12:03.148Z,98351.34
2023-01-11T23:15:07.470Z,98339.38
2023-01-11T23:18:11.054Z,98335.34
2023-01-11T23:21:16.673Z,98342.22
2023-01-11T23:24:20.090Z,98361.22
2023-01-11T23:27:26.640Z,98360.59
2023-01-11T23:30:30.119Z,98358.47
2023-01-11T23:33:33.363Z,98355.22
2023-01-11T23:36:39.473Z,98301.72
2023-01-11T23:39:46.633Z,98354.22
2023-01-11T23:42:48.994Z,98350.47
2023-01-11T23:46:14.424Z,98342.44
2023-01-11T23:49:16.950Z,98342.31
2023-01-11T23:52:23.740Z,98347.56
2023-01-11T23:55:27.232Z,98336.56
2023-01-11T23:58:31.914Z,98339.19
